sensor_id;sensor_type;location;lat;lon;timestamp;P1;durP1;ratioP1;P2;durP2;ratioP2
23290;SDS011;11814;44.686;10.842;2023-07-20T00:01:03;14.65;;;2.95;;
23290;SDS011;11814;44.686;10.842;2023-07-20T00:03:29;14.35;;;2.90;;
23290;SDS011;11814;44.686;10.842;2023-07-20T00:05:54;8.77;;;3.10;;
23290;SDS011;11814;44.686;10.842;2023-07-20T00:08:20;9.95;;;3.30;;
23290;SDS011;11814;44.686;10.842;2023-07-20T00:10:46;6.35;;;2.95;;
23290;SDS011;11814;44.686;10.842;2023-07-20T00:13:11;11.15;;;3.08;;
23290;SDS011;11814;44.686;10.842;2023-07-20T00:15:37;8.32;;;3.38;;
23290;SDS011;11814;44.686;10.842;2023-07-20T00:18:03;10.35;;;3.53;;
23290;SDS011;11814;44.686;10.842;2023-07-20T00:20:30;7.82;;;2.90;;
23290;SDS011;11814;44.686;10.842;2023-07-20T00:22:56;10.05;;;3.22;;
23290;SDS011;11814;44.686;10.842;2023-07-20T00:25:23;6.43;;;3.00;;
23290;SDS011;11814;44.686;10.842;2023-07-20T00:27:49;13.20;;;2.85;;
23290;SDS011;11814;44.686;10.842;2023-07-20T00:30:15;10.35;;;2.97;;
23290;SDS011;11814;44.686;10.842;2023-07-20T00:32:42;15.20;;;3.17;;
23290;SDS011;11814;44.686;10.842;2023-07-20T00:35:08;9.65;;;3.35;;
23290;SDS011;11814;44.686;10.842;2023-07-20T00:37:34;6.75;;;2.50;;
23290;SDS011;11814;44.686;10.842;2023-07-20T00:40:00;9.68;;;3.00;;
23290;SDS011;11814;44.686;10.842;2023-07-20T00:42:25;10.02;;;3.10;;
23290;SDS011;11814;44.686;10.842;2023-07-20T00:44:51;9.85;;;3.20;;
23290;SDS011;11814;44.686;10.842;2023-07-20T00:47:17;15.45;;;3.70;;
23290;SDS011;11814;44.686;10.842;2023-07-20T00:49:42;11.57;;;2.95;;
23290;SDS011;11814;44.686;10.842;2023-07-20T00:52:08;8.23;;;2.92;;
23290;SDS011;11814;44.686;10.842;2023-07-20T00:54:37;7.20;;;3.03;;
23290;SDS011;11814;44.686;10.842;2023-07-20T00:57:03;7.93;;;3.35;;
23290;SDS011;11814;44.686;10.842;2023-07-20T00:59:30;15.35;;;3.15;;
23290;SDS011;11814;44.686;10.842;2023-07-20T01:01:56;9.98;;;2.50;;
23290;SDS011;11814;44.686;10.842;2023-07-20T01:04:22;8.77;;;2.80;;
23290;SDS011;11814;44.686;10.842;2023-07-20T01:06:53;7.07;;;3.47;;
23290;SDS011;11814;44.686;10.842;2023-07-20T01:10:20;6.68;;;2.58;;
23290;SDS011;11814;44.686;10.842;2023-07-20T01:12:52;6.82;;;3.10;;
23290;SDS011;11814;44.686;10.842;2023-07-20T01:15:19;7.68;;;2.95;;
23290;SDS011;11814;44.686;10.842;2023-07-20T01:17:45;7.38;;;2.80;;
23290;SDS011;11814;44.686;10.842;2023-07-20T01:20:12;6.05;;;3.15;;
23290;SDS011;11814;44.686;10.842;2023-07-20T01:31:35;8.52;;;3.20;;
23290;SDS011;11814;44.686;10.842;2023-07-20T01:34:02;12.90;;;4.07;;
23290;SDS011;11814;44.686;10.842;2023-07-20T01:36:31;9.18;;;3.60;;
23290;SDS011;11814;44.686;10.842;2023-07-20T01:38:59;7.85;;;3.78;;
23290;SDS011;11814;44.686;10.842;2023-07-20T01:41:26;8.25;;;4.05;;
23290;SDS011;11814;44.686;10.842;2023-07-20T01:43:52;9.40;;;3.85;;
23290;SDS011;11814;44.686;10.842;2023-07-20T01:46:17;10.95;;;4.05;;
23290;SDS011;11814;44.686;10.842;2023-07-20T01:48:43;12.55;;;4.13;;
23290;SDS011;11814;44.686;10.842;2023-07-20T01:51:09;10.57;;;4.22;;
23290;SDS011;11814;44.686;10.842;2023-07-20T01:53:35;9.68;;;4.05;;
23290;SDS011;11814;44.686;10.842;2023-07-20T01:56:00;11.57;;;4.50;;
23290;SDS011;11814;44.686;10.842;2023-07-20T01:58:26;8.40;;;3.85;;
23290;SDS011;11814;44.686;10.842;2023-07-20T02:00:52;9.98;;;4.57;;
23290;SDS011;11814;44.686;10.842;2023-07-20T02:03:17;13.32;;;4.75;;
23290;SDS011;11814;44.686;10.842;2023-07-20T02:05:43;11.27;;;4.95;;
23290;SDS011;11814;44.686;10.842;2023-07-20T02:08:09;10.50;;;4.43;;
23290;SDS011;11814;44.686;10.842;2023-07-20T02:10:34;13.23;;;5.13;;
23290;SDS011;11814;44.686;10.842;2023-07-20T02:13:01;14.63;;;5.53;;
23290;SDS011;11814;44.686;10.842;2023-07-20T02:15:27;12.95;;;5.60;;
23290;SDS011;11814;44.686;10.842;2023-07-20T02:17:53;8.57;;;4.95;;
23290;SDS011;11814;44.686;10.842;2023-07-20T02:20:19;11.35;;;5.75;;
23290;SDS011;11814;44.686;10.842;2023-07-20T02:22:45;13.23;;;5.50;;
23290;SDS011;11814;44.686;10.842;2023-07-20T02:25:11;11.63;;;6.18;;
23290;SDS011;11814;44.686;10.842;2023-07-20T02:27:37;11.75;;;6.50;;
23290;SDS011;11814;44.686;10.842;2023-07-20T02:30:04;7.95;;;5.38;;
23290;SDS011;11814;44.686;10.842;2023-07-20T02:32:30;12.30;;;6.80;;
23290;SDS011;11814;44.686;10.842;2023-07-20T02:34:57;12.73;;;6.75;;
23290;SDS011;11814;44.686;10.842;2023-07-20T02:37:23;12.57;;;6.85;;
23290;SDS011;11814;44.686;10.842;2023-07-20T02:39:49;12.68;;;7.05;;
23290;SDS011;11814;44.686;10.842;2023-07-20T02:42:15;9.32;;;6.07;;
23290;SDS011;11814;44.686;10.842;2023-07-20T02:44:41;13.68;;;6.68;;
23290;SDS011;11814;44.686;10.842;2023-07-20T02:47:06;14.45;;;7.40;;
23290;SDS011;11814;44.686;10.842;2023-07-20T02:49:32;13.68;;;7.20;;
23290;SDS011;11814;44.686;10.842;2023-07-20T02:51:58;12.48;;;6.68;;
23290;SDS011;11814;44.686;10.842;2023-07-20T02:54:23;11.45;;;6.43;;
23290;SDS011;11814;44.686;10.842;2023-07-20T02:56:49;11.57;;;6.00;;
23290;SDS011;11814;44.686;10.842;2023-07-20T02:59:14;10.40;;;5.95;;
23290;SDS011;11814;44.686;10.842;2023-07-20T03:01:40;10.05;;;6.07;;
23290;SDS011;11814;44.686;10.842;2023-07-20T03:04:08;10.23;;;5.68;;
23290;SDS011;11814;44.686;10.842;2023-07-20T03:06:37;13.52;;;5.78;;
23290;SDS011;11814;44.686;10.842;2023-07-20T03:09:02;13.88;;;5.78;;
23290;SDS011;11814;44.686;10.842;2023-07-20T03:11:29;12.00;;;6.15;;
23290;SDS011;11814;44.686;10.842;2023-07-20T03:13:54;12.68;;;6.43;;
23290;SDS011;11814;44.686;10.842;2023-07-20T03:16:21;11.50;;;5.70;;
23290;SDS011;11814;44.686;10.842;2023-07-20T03:18:48;11.70;;;5.70;;
23290;SDS011;11814;44.686;10.842;2023-07-20T03:21:14;9.75;;;4.93;;
23290;SDS011;11814;44.686;10.842;2023-07-20T03:23:40;8.63;;;5.10;;
23290;SDS011;11814;44.686;10.842;2023-07-20T03:26:06;11.15;;;4.60;;
23290;SDS011;11814;44.686;10.842;2023-07-20T03:28:35;10.05;;;4.85;;
23290;SDS011;11814;44.686;10.842;2023-07-20T03:31:01;9.10;;;4.68;;
23290;SDS011;11814;44.686;10.842;2023-07-20T03:33:27;11.05;;;4.35;;
23290;SDS011;11814;44.686;10.842;2023-07-20T03:35:54;8.05;;;4.50;;
23290;SDS011;11814;44.686;10.842;2023-07-20T03:38:21;9.48;;;4.93;;
23290;SDS011;11814;44.686;10.842;2023-07-20T03:40:50;15.88;;;4.75;;
23290;SDS011;11814;44.686;10.842;2023-07-20T03:43:16;10.52;;;4.80;;
23290;SDS011;11814;44.686;10.842;2023-07-20T03:45:42;14.88;;;5.53;;
23290;SDS011;11814;44.686;10.842;2023-07-20T03:48:08;11.25;;;4.70;;
23290;SDS011;11814;44.686;10.842;2023-07-20T03:50:34;10.43;;;4.63;;
23290;SDS011;11814;44.686;10.842;2023-07-20T03:53:00;10.80;;;4.85;;
23290;SDS011;11814;44.686;10.842;2023-07-20T03:55:25;9.60;;;5.10;;
23290;SDS011;11814;44.686;10.842;2023-07-20T03:57:51;10.80;;;5.50;;
23290;SDS011;11814;44.686;10.842;2023-07-20T04:00:17;9.32;;;4.85;;
23290;SDS011;11814;44.686;10.842;2023-07-20T04:02:43;8.18;;;4.30;;
23290;SDS011;11814;44.686;10.842;2023-07-20T04:05:09;12.23;;;5.05;;
23290;SDS011;11814;44.686;10.842;2023-07-20T04:07:35;13.02;;;5.65;;
23290;SDS011;11814;44.686;10.842;2023-07-20T04:10:00;11.05;;;4.90;;
23290;SDS011;11814;44.686;10.842;2023-07-20T04:12:26;13.95;;;5.10;;
23290;SDS011;11814;44.686;10.842;2023-07-20T04:14:52;11.48;;;5.57;;
23290;SDS011;11814;44.686;10.842;2023-07-20T04:17:18;15.15;;;4.95;;
23290;SDS011;11814;44.686;10.842;2023-07-20T04:19:43;11.38;;;5.60;;
23290;SDS011;11814;44.686;10.842;2023-07-20T04:22:09;12.02;;;5.20;;
23290;SDS011;11814;44.686;10.842;2023-07-20T04:24:35;10.40;;;4.60;;
23290;SDS011;11814;44.686;10.842;2023-07-20T04:27:01;11.20;;;4.95;;
23290;SDS011;11814;44.686;10.842;2023-07-20T04:29:26;10.27;;;4.70;;
23290;SDS011;11814;44.686;10.842;2023-07-20T04:31:52;11.23;;;4.43;;
23290;SDS011;11814;44.686;10.842;2023-07-20T04:34:18;11.38;;;4.70;;
23290;SDS011;11814;44.686;10.842;2023-07-20T04:36:43;11.95;;;4.90;;
23290;SDS011;11814;44.686;10.842;2023-07-20T04:39:09;12.45;;;4.47;;
23290;SDS011;11814;44.686;10.842;2023-07-20T04:41:35;10.93;;;4.60;;
23290;SDS011;11814;44.686;10.842;2023-07-20T04:44:01;11.57;;;4.65;;
23290;SDS011;11814;44.686;10.842;2023-07-20T04:46:26;10.35;;;4.38;;
23290;SDS011;11814;44.686;10.842;2023-07-20T04:48:52;12.50;;;4.47;;
23290;SDS011;11814;44.686;10.842;2023-07-20T04:51:18;11.93;;;4.35;;
23290;SDS011;11814;44.686;10.842;2023-07-20T04:53:46;15.38;;;4.82;;
23290;SDS011;11814;44.686;10.842;2023-07-20T04:56:12;13.65;;;4.43;;
23290;SDS011;11814;44.686;10.842;2023-07-20T04:58:38;9.82;;;4.47;;
23290;SDS011;11814;44.686;10.842;2023-07-20T05:01:03;13.38;;;4.25;;
23290;SDS011;11814;44.686;10.842;2023-07-20T05:03:29;8.07;;;4.75;;
23290;SDS011;11814;44.686;10.842;2023-07-20T05:05:54;9.68;;;4.80;;
23290;SDS011;11814;44.686;10.842;2023-07-20T05:08:20;11.02;;;5.15;;
23290;SDS011;11814;44.686;10.842;2023-07-20T05:10:49;13.90;;;4.70;;
23290;SDS011;11814;44.686;10.842;2023-07-20T05:13:15;10.68;;;4.88;;
23290;SDS011;11814;44.686;10.842;2023-07-20T05:15:41;14.93;;;5.50;;
23290;SDS011;11814;44.686;10.842;2023-07-20T05:18:07;12.45;;;4.68;;
23290;SDS011;11814;44.686;10.842;2023-07-20T05:20:34;10.88;;;5.50;;
23290;SDS011;11814;44.686;10.842;2023-07-20T05:23:00;12.95;;;6.68;;
23290;SDS011;11814;44.686;10.842;2023-07-20T05:25:26;11.35;;;6.05;;
23290;SDS011;11814;44.686;10.842;2023-07-20T05:27:52;21.00;;;6.70;;
23290;SDS011;11814;44.686;10.842;2023-07-20T05:30:17;13.32;;;6.00;;
23290;SDS011;11814;44.686;10.842;2023-07-20T05:32:43;12.60;;;6.32;;
23290;SDS011;11814;44.686;10.842;2023-07-20T05:35:12;15.45;;;6.32;;
23290;SDS011;11814;44.686;10.842;2023-07-20T05:37:39;16.40;;;6.00;;
23290;SDS011;11814;44.686;10.842;2023-07-20T05:40:05;13.05;;;6.03;;
23290;SDS011;11814;44.686;10.842;2023-07-20T05:42:32;13.05;;;6.30;;
23290;SDS011;11814;44.686;10.842;2023-07-20T05:44:58;16.25;;;6.35;;
23290;SDS011;11814;44.686;10.842;2023-07-20T05:47:24;13.40;;;5.47;;
23290;SDS011;11814;44.686;10.842;2023-07-20T05:49:49;14.25;;;6.50;;
23290;SDS011;11814;44.686;10.842;2023-07-20T05:52:15;12.40;;;6.10;;
23290;SDS011;11814;44.686;10.842;2023-07-20T05:54:41;13.13;;;5.95;;
23290;SDS011;11814;44.686;10.842;2023-07-20T05:57:07;18.15;;;6.43;;
23290;SDS011;11814;44.686;10.842;2023-07-20T05:59:33;13.93;;;5.93;;
23290;SDS011;11814;44.686;10.842;2023-07-20T06:01:58;15.45;;;7.45;;
23290;SDS011;11814;44.686;10.842;2023-07-20T06:04:24;13.45;;;6.28;;
23290;SDS011;11814;44.686;10.842;2023-07-20T06:06:49;13.27;;;5.78;;
23290;SDS011;11814;44.686;10.842;2023-07-20T06:09:15;14.77;;;5.70;;
23290;SDS011;11814;44.686;10.842;2023-07-20T06:11:41;14.07;;;5.60;;
23290;SDS011;11814;44.686;10.842;2023-07-20T06:14:06;16.70;;;5.53;;
23290;SDS011;11814;44.686;10.842;2023-07-20T06:16:32;9.60;;;4.70;;
23290;SDS011;11814;44.686;10.842;2023-07-20T06:18:59;13.70;;;5.55;;
23290;SDS011;11814;44.686;10.842;2023-07-20T06:21:25;11.95;;;4.57;;
23290;SDS011;11814;44.686;10.842;2023-07-20T06:23:51;27.30;;;5.65;;
23290;SDS011;11814;44.686;10.842;2023-07-20T06:26:17;9.15;;;4.78;;
23290;SDS011;11814;44.686;10.842;2023-07-20T06:28:42;12.77;;;4.55;;
23290;SDS011;11814;44.686;10.842;2023-07-20T06:31:08;13.18;;;4.90;;
23290;SDS011;11814;44.686;10.842;2023-07-20T06:33:33;10.75;;;4.72;;
23290;SDS011;11814;44.686;10.842;2023-07-20T06:36:02;10.07;;;4.05;;
23290;SDS011;11814;44.686;10.842;2023-07-20T06:38:28;15.15;;;4.75;;
23290;SDS011;11814;44.686;10.842;2023-07-20T06:40:54;15.32;;;4.82;;
23290;SDS011;11814;44.686;10.842;2023-07-20T06:43:20;11.40;;;4.15;;
23290;SDS011;11814;44.686;10.842;2023-07-20T06:45:50;13.88;;;3.72;;
23290;SDS011;11814;44.686;10.842;2023-07-20T06:48:20;9.30;;;3.45;;
23290;SDS011;11814;44.686;10.842;2023-07-20T06:50:46;11.68;;;4.03;;
23290;SDS011;11814;44.686;10.842;2023-07-20T06:53:12;12.02;;;3.90;;
23290;SDS011;11814;44.686;10.842;2023-07-20T06:55:38;12.55;;;3.65;;
23290;SDS011;11814;44.686;10.842;2023-07-20T06:58:04;11.65;;;3.78;;
23290;SDS011;11814;44.686;10.842;2023-07-20T07:00:30;10.73;;;3.65;;
23290;SDS011;11814;44.686;10.842;2023-07-20T07:02:55;8.98;;;3.55;;
23290;SDS011;11814;44.686;10.842;2023-07-20T07:05:21;11.60;;;4.20;;
23290;SDS011;11814;44.686;10.842;2023-07-20T07:07:47;7.55;;;3.70;;
23290;SDS011;11814;44.686;10.842;2023-07-20T07:10:13;10.73;;;4.05;;
23290;SDS011;11814;44.686;10.842;2023-07-20T07:12:39;8.07;;;3.60;;
23290;SDS011;11814;44.686;10.842;2023-07-20T07:15:06;12.40;;;3.65;;
23290;SDS011;11814;44.686;10.842;2023-07-20T07:17:32;11.15;;;3.72;;
23290;SDS011;11814;44.686;10.842;2023-07-20T07:19:58;12.15;;;4.05;;
23290;SDS011;11814;44.686;10.842;2023-07-20T07:22:23;7.63;;;3.63;;
23290;SDS011;11814;44.686;10.842;2023-07-20T07:24:50;12.50;;;3.72;;
23290;SDS011;11814;44.686;10.842;2023-07-20T07:27:16;10.45;;;3.58;;
23290;SDS011;11814;44.686;10.842;2023-07-20T07:29:42;9.40;;;3.50;;
23290;SDS011;11814;44.686;10.842;2023-07-20T07:32:10;12.43;;;5.07;;
23290;SDS011;11814;44.686;10.842;2023-07-20T07:34:36;9.18;;;3.30;;
23290;SDS011;11814;44.686;10.842;2023-07-20T07:37:02;9.80;;;3.80;;
23290;SDS011;11814;44.686;10.842;2023-07-20T07:39:32;11.55;;;3.60;;
23290;SDS011;11814;44.686;10.842;2023-07-20T07:41:58;9.00;;;3.22;;
23290;SDS011;11814;44.686;10.842;2023-07-20T07:44:23;9.80;;;3.03;;
23290;SDS011;11814;44.686;10.842;2023-07-20T07:46:49;12.45;;;3.80;;
23290;SDS011;11814;44.686;10.842;2023-07-20T07:49:16;8.50;;;3.72;;
23290;SDS011;11814;44.686;10.842;2023-07-20T07:51:41;16.25;;;3.90;;
23290;SDS011;11814;44.686;10.842;2023-07-20T07:54:07;8.82;;;3.90;;
23290;SDS011;11814;44.686;10.842;2023-07-20T07:56:33;11.10;;;4.15;;
23290;SDS011;11814;44.686;10.842;2023-07-20T07:58:58;16.85;;;4.10;;
23290;SDS011;11814;44.686;10.842;2023-07-20T08:01:24;9.43;;;3.35;;
23290;SDS011;11814;44.686;10.842;2023-07-20T08:03:50;10.10;;;3.38;;
23290;SDS011;11814;44.686;10.842;2023-07-20T08:06:16;11.88;;;3.28;;
23290;SDS011;11814;44.686;10.842;2023-07-20T08:08:42;12.90;;;3.70;;
23290;SDS011;11814;44.686;10.842;2023-07-20T08:11:07;14.70;;;3.90;;
23290;SDS011;11814;44.686;10.842;2023-07-20T08:13:34;13.32;;;3.90;;
23290;SDS011;11814;44.686;10.842;2023-07-20T08:16:00;14.90;;;3.92;;
23290;SDS011;11814;44.686;10.842;2023-07-20T08:18:27;10.80;;;2.97;;
23290;SDS011;11814;44.686;10.842;2023-07-20T08:20:53;8.90;;;3.40;;
23290;SDS011;11814;44.686;10.842;2023-07-20T08:23:19;17.13;;;4.07;;
23290;SDS011;11814;44.686;10.842;2023-07-20T08:25:45;14.73;;;4.13;;
23290;SDS011;11814;44.686;10.842;2023-07-20T08:28:11;10.68;;;3.95;;
23290;SDS011;11814;44.686;10.842;2023-07-20T08:30:41;12.90;;;4.07;;
23290;SDS011;11814;44.686;10.842;2023-07-20T08:33:12;10.50;;;4.10;;
23290;SDS011;11814;44.686;10.842;2023-07-20T08:35:38;12.70;;;4.68;;
23290;SDS011;11814;44.686;10.842;2023-07-20T08:38:04;12.70;;;4.20;;
23290;SDS011;11814;44.686;10.842;2023-07-20T08:40:31;10.15;;;4.03;;
23290;SDS011;11814;44.686;10.842;2023-07-20T08:42:58;14.30;;;4.38;;
23290;SDS011;11814;44.686;10.842;2023-07-20T08:45:25;12.35;;;4.38;;
23290;SDS011;11814;44.686;10.842;2023-07-20T08:47:54;10.40;;;3.92;;
23290;SDS011;11814;44.686;10.842;2023-07-20T08:50:23;11.57;;;4.57;;
23290;SDS011;11814;44.686;10.842;2023-07-20T08:52:50;8.75;;;4.20;;
23290;SDS011;11814;44.686;10.842;2023-07-20T08:55:19;19.20;;;4.80;;
23290;SDS011;11814;44.686;10.842;2023-07-20T08:57:47;12.77;;;4.60;;
23290;SDS011;11814;44.686;10.842;2023-07-20T09:00:15;7.60;;;3.88;;
23290;SDS011;11814;44.686;10.842;2023-07-20T09:02:43;11.35;;;3.90;;
23290;SDS011;11814;44.686;10.842;2023-07-20T09:05:10;17.08;;;4.20;;
23290;SDS011;11814;44.686;10.842;2023-07-20T09:07:39;9.68;;;4.28;;
23290;SDS011;11814;44.686;10.842;2023-07-20T09:10:05;11.73;;;4.78;;
23290;SDS011;11814;44.686;10.842;2023-07-20T09:12:34;12.50;;;4.82;;
23290;SDS011;11814;44.686;10.842;2023-07-20T09:15:02;12.57;;;4.60;;
23290;SDS011;11814;44.686;10.842;2023-07-20T09:17:28;13.55;;;4.57;;
23290;SDS011;11814;44.686;10.842;2023-07-20T09:19:53;10.82;;;4.60;;
23290;SDS011;11814;44.686;10.842;2023-07-20T09:22:19;13.40;;;4.68;;
23290;SDS011;11814;44.686;10.842;2023-07-20T09:24:45;13.30;;;4.72;;
23290;SDS011;11814;44.686;10.842;2023-07-20T09:27:10;10.48;;;4.28;;
23290;SDS011;11814;44.686;10.842;2023-07-20T09:29:47;11.82;;;4.35;;
23290;SDS011;11814;44.686;10.842;2023-07-20T09:32:20;10.60;;;4.95;;
23290;SDS011;11814;44.686;10.842;2023-07-20T09:34:46;16.95;;;4.78;;
23290;SDS011;11814;44.686;10.842;2023-07-20T09:37:12;14.35;;;4.35;;
23290;SDS011;11814;44.686;10.842;2023-07-20T09:39:45;13.23;;;4.63;;
23290;SDS011;11814;44.686;10.842;2023-07-20T09:42:13;13.57;;;4.28;;
23290;SDS011;11814;44.686;10.842;2023-07-20T09:44:39;11.77;;;4.65;;
23290;SDS011;11814;44.686;10.842;2023-07-20T09:47:08;10.30;;;4.25;;
23290;SDS011;11814;44.686;10.842;2023-07-20T09:49:38;10.88;;;4.00;;
23290;SDS011;11814;44.686;10.842;2023-07-20T09:52:05;10.98;;;4.53;;
23290;SDS011;11814;44.686;10.842;2023-07-20T09:54:33;13.98;;;4.82;;
23290;SDS011;11814;44.686;10.842;2023-07-20T09:56:59;12.63;;;4.60;;
23290;SDS011;11814;44.686;10.842;2023-07-20T09:59:26;8.18;;;4.28;;
23290;SDS011;11814;44.686;10.842;2023-07-20T10:01:52;12.10;;;4.45;;
23290;SDS011;11814;44.686;10.842;2023-07-20T10:04:22;13.85;;;4.53;;
23290;SDS011;11814;44.686;10.842;2023-07-20T10:06:49;13.93;;;4.60;;
23290;SDS011;11814;44.686;10.842;2023-07-20T10:09:19;10.38;;;4.32;;
23290;SDS011;11814;44.686;10.842;2023-07-20T10:11:49;12.65;;;4.15;;
23290;SDS011;11814;44.686;10.842;2023-07-20T10:14:16;9.35;;;4.30;;
23290;SDS011;11814;44.686;10.842;2023-07-20T10:16:51;10.60;;;4.32;;
23290;SDS011;11814;44.686;10.842;2023-07-20T10:22:14;14.05;;;5.00;;
23290;SDS011;11814;44.686;10.842;2023-07-20T10:24:44;13.02;;;4.97;;
23290;SDS011;11814;44.686;10.842;2023-07-20T10:27:12;10.80;;;4.20;;
23290;SDS011;11814;44.686;10.842;2023-07-20T10:29:38;16.45;;;4.47;;
23290;SDS011;11814;44.686;10.842;2023-07-20T10:32:05;12.30;;;4.28;;
23290;SDS011;11814;44.686;10.842;2023-07-20T10:34:32;14.05;;;4.97;;
23290;SDS011;11814;44.686;10.842;2023-07-20T10:36:58;13.23;;;4.35;;
23290;SDS011;11814;44.686;10.842;2023-07-20T10:39:24;11.98;;;4.20;;
23290;SDS011;11814;44.686;10.842;2023-07-20T10:42:08;13.88;;;5.25;;
23290;SDS011;11814;44.686;10.842;2023-07-20T10:44:38;18.73;;;5.10;;
23290;SDS011;11814;44.686;10.842;2023-07-20T10:47:08;11.32;;;5.00;;
23290;SDS011;11814;44.686;10.842;2023-07-20T10:49:39;17.95;;;4.88;;
23290;SDS011;11814;44.686;10.842;2023-07-20T10:52:25;9.50;;;4.38;;
23290;SDS011;11814;44.686;10.842;2023-07-20T10:54:51;12.68;;;4.45;;
23290;SDS011;11814;44.686;10.842;2023-07-20T11:00:11;10.35;;;4.45;;
23290;SDS011;11814;44.686;10.842;2023-07-20T11:02:58;13.15;;;5.13;;
23290;SDS011;11814;44.686;10.842;2023-07-20T11:05:37;12.85;;;4.70;;
23290;SDS011;11814;44.686;10.842;2023-07-20T11:08:04;11.25;;;4.70;;
23290;SDS011;11814;44.686;10.842;2023-07-20T11:10:59;14.25;;;4.82;;
23290;SDS011;11814;44.686;10.842;2023-07-20T11:13:59;16.77;;;4.95;;
23290;SDS011;11814;44.686;10.842;2023-07-20T11:17:10;10.18;;;4.85;;
23290;SDS011;11814;44.686;10.842;2023-07-20T11:21:47;10.55;;;4.80;;
23290;SDS011;11814;44.686;10.842;2023-07-20T11:24:16;11.65;;;4.63;;
23290;SDS011;11814;44.686;10.842;2023-07-20T11:26:43;14.48;;;4.70;;
23290;SDS011;11814;44.686;10.842;2023-07-20T11:29:10;12.35;;;4.15;;
23290;SDS011;11814;44.686;10.842;2023-07-20T11:31:40;16.00;;;4.80;;
23290;SDS011;11814;44.686;10.842;2023-07-20T11:34:10;14.35;;;4.75;;
23290;SDS011;11814;44.686;10.842;2023-07-20T11:36:41;12.13;;;4.63;;
23290;SDS011;11814;44.686;10.842;2023-07-20T11:39:08;12.07;;;4.97;;
23290;SDS011;11814;44.686;10.842;2023-07-20T11:41:35;15.18;;;4.93;;
23290;SDS011;11814;44.686;10.842;2023-07-20T11:44:00;11.48;;;4.38;;
23290;SDS011;11814;44.686;10.842;2023-07-20T11:46:28;12.38;;;5.00;;
23290;SDS011;11814;44.686;10.842;2023-07-20T11:49:00;14.70;;;4.72;;
23290;SDS011;11814;44.686;10.842;2023-07-20T11:51:27;12.13;;;5.00;;
23290;SDS011;11814;44.686;10.842;2023-07-20T11:53:53;12.73;;;4.68;;
23290;SDS011;11814;44.686;10.842;2023-07-20T11:56:19;13.55;;;4.50;;
23290;SDS011;11814;44.686;10.842;2023-07-20T11:58:45;12.00;;;4.35;;
23290;SDS011;11814;44.686;10.842;2023-07-20T12:01:12;12.73;;;5.10;;
23290;SDS011;11814;44.686;10.842;2023-07-20T12:03:39;12.77;;;4.57;;
23290;SDS011;11814;44.686;10.842;2023-07-20T12:06:10;9.98;;;4.55;;
23290;SDS011;11814;44.686;10.842;2023-07-20T12:08:39;13.20;;;4.03;;
23290;SDS011;11814;44.686;10.842;2023-07-20T12:11:07;10.85;;;4.25;;
23290;SDS011;11814;44.686;10.842;2023-07-20T12:13:40;12.63;;;4.88;;
23290;SDS011;11814;44.686;10.842;2023-07-20T12:16:14;11.60;;;4.93;;
23290;SDS011;11814;44.686;10.842;2023-07-20T12:18:42;10.93;;;4.60;;
23290;SDS011;11814;44.686;10.842;2023-07-20T12:21:08;13.65;;;4.93;;
23290;SDS011;11814;44.686;10.842;2023-07-20T12:23:35;12.73;;;4.25;;
23290;SDS011;11814;44.686;10.842;2023-07-20T12:26:08;12.63;;;5.13;;
23290;SDS011;11814;44.686;10.842;2023-07-20T12:28:41;13.88;;;4.20;;
23290;SDS011;11814;44.686;10.842;2023-07-20T12:31:10;13.10;;;5.00;;
23290;SDS011;11814;44.686;10.842;2023-07-20T12:33:38;11.93;;;4.18;;
23290;SDS011;11814;44.686;10.842;2023-07-20T12:36:04;16.38;;;4.75;;
23290;SDS011;11814;44.686;10.842;2023-07-20T12:38:30;11.60;;;4.15;;
23290;SDS011;11814;44.686;10.842;2023-07-20T12:40:56;10.68;;;4.47;;
23290;SDS011;11814;44.686;10.842;2023-07-20T12:43:23;12.63;;;4.47;;
23290;SDS011;11814;44.686;10.842;2023-07-20T12:45:49;13.60;;;4.65;;
23290;SDS011;11814;44.686;10.842;2023-07-20T12:48:15;14.40;;;4.38;;
23290;SDS011;11814;44.686;10.842;2023-07-20T12:50:41;15.63;;;4.68;;
23290;SDS011;11814;44.686;10.842;2023-07-20T12:53:07;13.55;;;4.68;;
23290;SDS011;11814;44.686;10.842;2023-07-20T12:55:33;10.38;;;4.88;;
23290;SDS011;11814;44.686;10.842;2023-07-20T12:57:59;15.40;;;4.95;;
23290;SDS011;11814;44.686;10.842;2023-07-20T13:00:24;12.55;;;4.70;;
23290;SDS011;11814;44.686;10.842;2023-07-20T13:02:50;10.07;;;5.15;;
23290;SDS011;11814;44.686;10.842;2023-07-20T13:05:16;12.85;;;4.88;;
23290;SDS011;11814;44.686;10.842;2023-07-20T13:07:42;10.70;;;4.88;;
23290;SDS011;11814;44.686;10.842;2023-07-20T13:10:09;9.77;;;4.93;;
23290;SDS011;11814;44.686;10.842;2023-07-20T13:12:36;16.02;;;5.43;;
23290;SDS011;11814;44.686;10.842;2023-07-20T13:15:03;14.15;;;5.28;;
23290;SDS011;11814;44.686;10.842;2023-07-20T13:17:33;12.63;;;5.32;;
23290;SDS011;11814;44.686;10.842;2023-07-20T13:20:04;9.52;;;4.95;;
23290;SDS011;11814;44.686;10.842;2023-07-20T13:22:31;17.58;;;5.35;;
23290;SDS011;11814;44.686;10.842;2023-07-20T13:24:57;12.75;;;5.10;;
23290;SDS011;11814;44.686;10.842;2023-07-20T13:27:23;14.02;;;5.18;;
23290;SDS011;11814;44.686;10.842;2023-07-20T13:29:50;18.33;;;5.20;;
23290;SDS011;11814;44.686;10.842;2023-07-20T13:32:16;12.07;;;5.18;;
23290;SDS011;11814;44.686;10.842;2023-07-20T13:34:43;15.63;;;4.80;;
23290;SDS011;11814;44.686;10.842;2023-07-20T13:37:09;11.57;;;4.82;;
23290;SDS011;11814;44.686;10.842;2023-07-20T13:39:36;13.38;;;5.00;;
23290;SDS011;11814;44.686;10.842;2023-07-20T13:42:02;15.07;;;4.57;;
23290;SDS011;11814;44.686;10.842;2023-07-20T13:44:30;13.13;;;5.05;;
23290;SDS011;11814;44.686;10.842;2023-07-20T13:46:56;12.98;;;5.22;;
23290;SDS011;11814;44.686;10.842;2023-07-20T13:49:22;12.75;;;4.82;;
23290;SDS011;11814;44.686;10.842;2023-07-20T13:51:48;15.30;;;5.13;;
23290;SDS011;11814;44.686;10.842;2023-07-20T13:54:14;17.20;;;6.03;;
23290;SDS011;11814;44.686;10.842;2023-07-20T13:56:39;18.50;;;5.63;;
23290;SDS011;11814;44.686;10.842;2023-07-20T13:59:05;11.52;;;4.57;;
23290;SDS011;11814;44.686;10.842;2023-07-20T14:01:31;16.05;;;5.28;;
23290;SDS011;11814;44.686;10.842;2023-07-20T14:03:59;15.75;;;5.40;;
23290;SDS011;11814;44.686;10.842;2023-07-20T14:06:25;11.82;;;5.40;;
23290;SDS011;11814;44.686;10.842;2023-07-20T14:08:52;14.50;;;4.95;;
23290;SDS011;11814;44.686;10.842;2023-07-20T14:11:18;15.55;;;5.25;;
23290;SDS011;11814;44.686;10.842;2023-07-20T14:13:44;18.63;;;4.93;;
23290;SDS011;11814;44.686;10.842;2023-07-20T14:16:10;9.90;;;4.80;;
23290;SDS011;11814;44.686;10.842;2023-07-20T14:18:36;11.73;;;4.88;;
23290;SDS011;11814;44.686;10.842;2023-07-20T14:21:01;14.25;;;5.40;;
23290;SDS011;11814;44.686;10.842;2023-07-20T14:23:28;15.20;;;5.40;;
23290;SDS011;11814;44.686;10.842;2023-07-20T14:25:54;11.90;;;5.07;;
23290;SDS011;11814;44.686;10.842;2023-07-20T14:28:20;13.07;;;5.90;;
23290;SDS011;11814;44.686;10.842;2023-07-20T14:30:46;13.95;;;5.53;;
23290;SDS011;11814;44.686;10.842;2023-07-20T14:33:12;19.80;;;5.65;;
23290;SDS011;11814;44.686;10.842;2023-07-20T14:35:37;20.02;;;6.05;;
23290;SDS011;11814;44.686;10.842;2023-07-20T14:38:03;13.40;;;4.95;;
23290;SDS011;11814;44.686;10.842;2023-07-20T14:40:29;15.23;;;4.97;;